Time;durP1;ratioP1;P1;durP2;ratioP2;P2;SDS_P1;SDS_P2;PMS_P1;PMS_P2;Temp;Humidity;BMP_temperature;BMP_pressure;BME280_temperature;BME280_humidity;BME280_pressure;Samples;Min_cycle;Max_cycle;Signal;HPM_P1;HPM_P2
2022/10/24 00:01:15;;;;;;;;;;;;;;;20.33;63.40;101503.22;7401089;19;1570;-76
2022/10/24 00:03:45;;;;;;;;;;;;;;;20.34;63.12;101518.38;7404243;19;1616;-76
2022/10/24 00:06:14;;;;;;;;;;;;;;;20.33;63.19;101513.97;7406686;19;1619;-78
2022/10/24 00:08:43;;;;;;;;;;;;;;;20.34;63.05;101524.59;7406687;19;1653;-78
2022/10/24 00:11:17;;;;;;;;;;;;;;;20.34;63.27;101505.78;7403454;19;1511;-79
2022/10/24 00:13:47;;;;;;;;;;;;;;;20.34;62.84;101504.94;7405637;19;1519;-79
2022/10/24 00:16:17;;;;;;;;;;;;;;;20.34;63.09;101521.91;7405456;19;1862;-75
2022/10/24 00:18:45;;;;;;;;;;;;;;;20.34;62.77;101515.69;7406790;19;1364;-76
2022/10/24 00:21:16;;;;;;;;;;;;;;;20.39;63.15;101508.09;7409005;19;1430;-73
2022/10/24 00:23:44;;;;;;;;;;;;;;;20.35;63.01;101501.25;7406394;19;1587;-76
2022/10/24 00:26:14;;;;;;;;;;;;;;;20.31;62.74;101510.56;7404688;19;1714;-75
2022/10/24 00:28:46;;;;;;;;;;;;;;;20.36;62.90;101503.81;7405415;19;1586;-76
2022/10/24 00:31:15;;;;;;;;;;;;;;;20.31;63.04;101494.44;7406882;19;1644;-76
2022/10/24 00:33:43;;;;;;;;;;;;;;;20.32;63.03;101517.66;7405890;19;1640;-76
2022/10/24 00:36:13;;;;;;;;;;;;;;;20.31;63.28;101510.56;7402369;19;1833;-71
2022/10/24 00:38:42;;;;;;;;;;;;;;;20.31;63.03;101513.25;7404905;19;1232;-70
2022/10/24 00:41:11;;;;;;;;;;;;;;;20.30;63.10;101500.81;7403556;19;1322;-71
2022/10/24 00:43:40;;;;;;;;;;;;;;;20.31;63.18;101514.09;7403683;19;1375;-70
2022/10/24 00:46:11;;;;;;;;;;;;;;;20.30;63.24;101504.34;7404643;19;1614;-71
2022/10/24 00:48:41;;;;;;;;;;;;;;;20.30;63.04;101519.59;7403198;19;1414;-71
2022/10/24 00:51:12;;;;;;;;;;;;;;;20.26;62.98;101530.59;7403297;19;1408;-71
2022/10/24 00:53:44;;;;;;;;;;;;;;;20.25;62.95;101526.22;7405407;19;1438;-70
2022/10/24 00:56:13;;;;;;;;;;;;;;;20.27;63.20;101529.63;7402478;19;1877;-71
2022/10/24 00:58:44;;;;;;;;;;;;;;;20.27;62.64;101510.81;7402774;19;1621;-70
2022/10/24 01:01:15;;;;;;;;;;;;;;;20.34;62.91;101521.06;7403401;19;1531;-71
2022/10/24 01:03:43;;;;;;;;;;;;;;;20.53;62.17;101515.88;7402636;19;1690;-70
2022/10/24 01:06:33;;;;;;;;;;;;;;;21.34;60.66;101520.75;7401948;19;1540;-70
2022/10/24 01:09:07;;;;;;;;;;;;;;;22.00;58.49;101496.13;7401893;19;1511;-71
2022/10/24 01:11:44;;;;;;;;;;;;;;;22.07;58.35;101510.75;7402190;19;1663;-73
2022/10/24 01:14:18;;;;;;;;;;;;;;;21.67;59.43;101500.84;7402777;19;1607;-74
2022/10/24 01:16:52;;;;;;;;;;;;;;;21.19;60.40;101504.09;7400037;19;1844;-73
2022/10/24 01:19:38;;;;;;;;;;;;;;;21.47;59.94;101510.66;7403876;19;1356;-73
2022/10/24 01:22:09;;;;;;;;;;;;;;;21.81;59.34;101497.78;7401732;19;1359;-73
2022/10/24 01:24:45;;;;;;;;;;;;;;;22.04;58.97;101486.78;7401528;19;1379;-73
2022/10/24 01:27:29;;;;;;;;;;;;;;;21.56;59.74;101490.16;7403910;19;1615;-73
2022/10/24 01:30:10;;;;;;;;;;;;;;;21.17;60.75;101495.28;7403525;19;1411;-76
2022/10/24 01:32:43;;;;;;;;;;;;;;;21.56;59.85;101487.47;7402265;19;1516;-76
2022/10/24 01:35:17;;;;;;;;;;;;;;;21.85;59.13;101493.81;7402112;19;1868;-75
2022/10/24 01:37:49;;;;;;;;;;;;;;;21.99;58.84;101489.91;7402809;19;1546;-76
2022/10/24 01:40:21;;;;;;;;;;;;;;;22.28;58.18;101485.59;7402178;19;1552;-76
2022/10/24 01:42:51;;;;;;;;;;;;;;;22.24;58.03;101493.97;7403680;19;1470;-77
2022/10/24 01:45:25;;;;;;;;;;;;;;;22.15;58.35;101492.06;7404185;19;1591;-74
2022/10/24 01:47:58;;;;;;;;;;;;;;;22.16;58.32;101485.69;7402465;19;1758;-73
2022/10/24 01:50:28;;;;;;;;;;;;;;;22.09;58.75;101481.84;7400861;19;1681;-75
2022/10/24 01:52:58;;;;;;;;;;;;;;;22.04;58.88;101501.13;7401306;19;1390;-75
2022/10/24 01:55:27;;;;;;;;;;;;;;;22.06;58.78;101495.56;7399291;19;1867;-75
2022/10/24 01:57:55;;;;;;;;;;;;;;;22.01;58.78;101500.53;7402066;19;1632;-75
2022/10/24 02:00:26;;;;;;;;;;;;;;;22.04;58.63;101500.25;7400592;19;1658;-74
2022/10/24 02:02:57;;;;;;;;;;;;;;;22.07;58.78;101499.13;7404568;19;1623;-71
2022/10/24 02:05:27;;;;;;;;;;;;;;;22.11;58.71;101501.41;7410274;19;1300;-72
2022/10/24 02:07:59;;;;;;;;;;;;;;;22.10;58.88;101486.22;7409281;19;1561;-70
2022/10/24 02:10:29;;;;;;;;;;;;;;;22.15;58.65;101497.44;7408309;19;1427;-71
2022/10/24 02:13:01;;;;;;;;;;;;;;;22.35;58.05;101497.50;7406256;19;1576;-72
2022/10/24 02:15:34;;;;;;;;;;;;;;;22.48;57.86;101492.69;7409441;19;1865;-72
2022/10/24 02:18:03;;;;;;;;;;;;;;;22.46;57.95;101486.59;7410382;19;1577;-72
2022/10/24 02:20:35;;;;;;;;;;;;;;;22.41;58.14;101475.41;7409426;19;1430;-72
2022/10/24 02:23:07;;;;;;;;;;;;;;;22.42;58.51;101487.84;7407904;19;1670;-72
2022/10/24 02:25:38;;;;;;;;;;;;;;;22.38;58.90;101481.06;7408657;19;1348;-72
2022/10/24 02:28:08;;;;;;;;;;;;;;;22.46;58.72;101486.59;7408530;19;1357;-72
2022/10/24 02:30:42;;;;;;;;;;;;;;;22.47;58.82;101496.38;7408178;19;1623;-71
2022/10/24 02:33:11;;;;;;;;;;;;;;;22.44;58.91;101494.84;7407822;19;1582;-71
2022/10/24 02:35:41;;;;;;;;;;;;;;;22.54;58.86;101508.31;7407173;19;1837;-72
2022/10/24 02:38:13;;;;;;;;;;;;;;;22.58;58.50;101477.41;7408032;19;1619;-72
2022/10/24 02:40:42;;;;;;;;;;;;;;;22.66;58.27;101487.47;7406961;19;1356;-71
2022/10/24 02:43:12;;;;;;;;;;;;;;;22.67;58.25;101491.00;7407768;19;1353;-72
2022/10/24 02:45:44;;;;;;;;;;;;;;;22.65;58.48;101496.53;7409266;19;886;-72
2022/10/24 02:48:14;;;;;;;;;;;;;;;22.70;58.50;101488.00;7406624;19;1379;-71
2022/10/24 02:50:43;;;;;;;;;;;;;;;22.70;58.47;101506.88;7406883;19;1606;-71
2022/10/24 02:53:14;;;;;;;;;;;;;;;22.74;58.37;101495.69;7407764;19;1339;-71
2022/10/24 02:55:43;;;;;;;;;;;;;;;22.76;58.30;101504.50;7404923;19;1837;-71
2022/10/24 02:58:11;;;;;;;;;;;;;;;22.77;58.08;101494.53;7405742;19;1611;-71
2022/10/24 03:00:40;;;;;;;;;;;;;;;22.76;58.42;101499.09;7405876;19;1533;-71
2022/10/24 03:03:10;;;;;;;;;;;;;;;22.77;58.24;101498.09;7404534;19;1745;-71
2022/10/24 03:05:39;;;;;;;;;;;;;;;22.82;58.32;101508.47;7406532;19;1357;-71
2022/10/24 03:08:07;;;;;;;;;;;;;;;22.84;58.27;101501.09;7406797;19;1677;-71
2022/10/24 03:10:36;;;;;;;;;;;;;;;22.79;58.42;101498.78;7401302;19;1660;-71
2022/10/24 03:13:05;;;;;;;;;;;;;;;22.86;58.18;101507.19;7405248;19;1378;-71
2022/10/24 03:15:33;;;;;;;;;;;;;;;22.86;58.00;101493.69;7404681;19;1860;-71
2022/10/24 03:18:01;;;;;;;;;;;;;;;22.92;57.94;101487.72;7406475;19;1362;-72
2022/10/24 03:20:32;;;;;;;;;;;;;;;22.95;57.78;101500.91;7407831;19;1678;-72
2022/10/24 03:23:01;;;;;;;;;;;;;;;22.97;57.83;101504.31;7406264;19;1490;-72
2022/10/24 03:25:29;;;;;;;;;;;;;;;22.94;58.09;101499.22;7405938;19;1353;-71
2022/10/24 03:27:57;;;;;;;;;;;;;;;22.94;57.91;101510.00;7406932;19;1695;-72
2022/10/24 03:30:26;;;;;;;;;;;;;;;22.93;57.92;101500.19;7406094;19;1769;-71
2022/10/24 03:32:54;;;;;;;;;;;;;;;22.90;57.88;101494.25;7404417;19;1706;-71
2022/10/24 03:35:23;;;;;;;;;;;;;;;22.97;57.80;101498.06;7405379;19;1954;-72
2022/10/24 03:37:54;;;;;;;;;;;;;;;22.94;58.22;101487.56;7406329;19;1749;-72
2022/10/24 03:40:22;;;;;;;;;;;;;;;22.93;58.06;101505.59;7405297;19;1607;-72
2022/10/24 03:42:50;;;;;;;;;;;;;;;22.91;58.04;101502.19;7407220;19;992;-72
2022/10/24 03:45:19;;;;;;;;;;;;;;;22.95;57.92;101500.06;7402491;19;1588;-72
2022/10/24 03:47:47;;;;;;;;;;;;;;;23.03;57.95;101511.84;7406007;19;1643;-72
2022/10/24 03:50:15;;;;;;;;;;;;;;;22.94;58.15;101507.31;7405245;19;1427;-72
2022/10/24 03:52:44;;;;;;;;;;;;;;;22.94;57.99;101504.63;7405077;19;1555;-72
2022/10/24 03:55:15;;;;;;;;;;;;;;;22.97;57.87;101522.34;7405075;19;1567;-72
2022/10/24 03:57:43;;;;;;;;;;;;;;;22.99;57.84;101507.72;7403741;19;1818;-72
2022/10/24 04:00:12;;;;;;;;;;;;;;;22.95;58.20;101505.47;7406212;19;1334;-72
2022/10/24 04:02:40;;;;;;;;;;;;;;;22.98;58.20;101491.69;7403564;19;1560;-72
2022/10/24 04:05:10;;;;;;;;;;;;;;;23.01;58.09;101499.50;7402852;19;1690;-72
2022/10/24 04:07:38;;;;;;;;;;;;;;;23.06;58.00;101504.47;7404073;19;1667;-72
2022/10/24 04:10:07;;;;;;;;;;;;;;;23.09;57.91;101509.59;7406297;19;914;-72
2022/10/24 04:12:38;;;;;;;;;;;;;;;22.98;58.24;101506.03;7405930;19;1515;-72
2022/10/24 04:15:07;;;;;;;;;;;;;;;23.10;57.76;101517.56;7404396;19;1560;-72
2022/10/24 04:17:36;;;;;;;;;;;;;;;23.07;57.84;101515.13;7402463;19;1841;-71
2022/10/24 04:20:05;;;;;;;;;;;;;;;23.11;57.97;101518.41;7404904;19;1625;-71
2022/10/24 04:22:34;;;;;;;;;;;;;;;23.01;58.27;101507.59;7403663;19;1687;-71
2022/10/24 04:25:02;;;;;;;;;;;;;;;23.05;58.19;101524.38;7402595;19;1395;-71
2022/10/24 04:27:30;;;;;;;;;;;;;;;23.05;57.95;101509.03;7402411;19;1717;-71
2022/10/24 04:30:01;;;;;;;;;;;;;;;23.00;58.03;101509.44;7401808;19;1687;-71
2022/10/24 04:32:30;;;;;;;;;;;;;;;23.05;58.11;101518.97;7403846;19;1365;-72
2022/10/24 04:34:58;;;;;;;;;;;;;;;23.03;57.93;101516.41;7404712;19;1348;-72
2022/10/24 04:37:26;;;;;;;;;;;;;;;23.03;58.01;101519.94;7401977;19;1854;-72
2022/10/24 04:39:55;;;;;;;;;;;;;;;23.01;58.30;101512.97;7404820;19;971;-72
2022/10/24 04:42:24;;;;;;;;;;;;;;;23.06;58.03;101510.75;7404433;19;1737;-72
2022/10/24 04:44:52;;;;;;;;;;;;;;;23.00;57.96;101512.13;7402794;19;1414;-71
2022/10/24 04:47:23;;;;;;;;;;;;;;;23.03;58.28;101509.16;7403251;19;1363;-71
2022/10/24 04:49:51;;;;;;;;;;;;;;;23.08;58.09;101515.97;7404086;19;1342;-72
2022/10/24 04:52:20;;;;;;;;;;;;;;;23.09;58.28;101532.03;7403354;19;1496;-71
2022/10/24 04:54:48;;;;;;;;;;;;;;;23.13;58.02;101535.28;7402147;19;1426;-71
2022/10/24 04:57:16;;;;;;;;;;;;;;;23.09;58.22;101523.09;7403084;19;1846;-71
2022/10/24 04:59:44;;;;;;;;;;;;;;;23.08;58.08;101516.84;7404298;19;1379;-71
2022/10/24 05:02:13;;;;;;;;;;;;;;;23.07;58.12;101527.78;7402237;19;1734;-72
2022/10/24 05:04:44;;;;;;;;;;;;;;;22.96;58.39;101531.44;7403035;19;1348;-72
2022/10/24 05:07:13;;;;;;;;;;;;;;;22.85;58.80;101529.75;7397991;19;1532;-72
2022/10/24 05:09:41;;;;;;;;;;;;;;;22.85;58.54;101521.66;7401663;19;1458;-70
2022/10/24 05:12:10;;;;;;;;;;;;;;;22.58;59.97;101527.72;7401743;19;1780;-70
2022/10/24 05:14:38;;;;;;;;;;;;;;;22.22;60.77;101536.31;7401530;19;1575;-70
2022/10/24 05:17:06;;;;;;;;;;;;;;;21.95;61.66;101533.41;7400851;19;1846;-69
2022/10/24 05:19:35;;;;;;;;;;;;;;;21.80;62.60;101549.06;7402392;19;1651;-72
2022/10/24 05:22:06;;;;;;;;;;;;;;;21.67;62.64;101526.91;7402424;19;1556;-69
2022/10/24 05:24:34;;;;;;;;;;;;;;;21.74;62.22;101520.00;7403262;19;1673;-69
2022/10/24 05:27:02;;;;;;;;;;;;;;;22.15;61.41;101537.84;7401728;19;1677;-74
2022/10/24 05:29:31;;;;;;;;;;;;;;;22.19;61.55;101525.81;7401611;19;1540;-73
2022/10/24 05:32:00;;;;;;;;;;;;;;;22.46;60.84;101531.56;7400291;19;1369;-76
2022/10/24 05:34:29;;;;;;;;;;;;;;;22.67;60.16;101531.44;7402364;19;1552;-75
2022/10/24 05:36:57;;;;;;;;;;;;;;;22.80;59.54;101537.38;7405568;19;1854;-75
2022/10/24 05:39:28;;;;;;;;;;;;;;;22.81;59.87;101533.72;7408327;19;1533;-76
2022/10/24 05:42:01;;;;;;;;;;;;;;;22.81;59.73;101517.53;7409611;19;1671;-76
2022/10/24 05:44:29;;;;;;;;;;;;;;;22.91;59.58;101549.91;7409772;19;1561;-75
2022/10/24 05:46:58;;;;;;;;;;;;;;;22.90;59.66;101526.59;7409776;19;1586;-68
2022/10/24 05:49:27;;;;;;;;;;;;;;;22.69;60.67;101534.84;7409842;19;1181;-76
2022/10/24 05:51:55;;;;;;;;;;;;;;;22.35;61.19;101546.03;7407866;19;1261;-75
2022/10/24 05:54:24;;;;;;;;;;;;;;;22.08;62.49;101554.69;7410229;19;1417;-69
2022/10/24 05:56:54;;;;;;;;;;;;;;;21.97;62.45;101561.03;7411069;19;1827;-74
2022/10/24 05:59:23;;;;;;;;;;;;;;;21.91;62.38;101557.06;7408597;19;1666;-67
2022/10/24 06:01:51;;;;;;;;;;;;;;;21.96;62.89;101559.31;7403004;19;1506;-71
2022/10/24 06:04:20;;;;;;;;;;;;;;;22.07;62.41;101563.78;7405071;19;1465;-73
2022/10/24 06:06:49;;;;;;;;;;;;;;;22.12;62.34;101554.28;7406331;19;1307;-70
2022/10/24 06:09:17;;;;;;;;;;;;;;;22.11;62.70;101563.38;7406517;19;1319;-68
2022/10/24 06:11:45;;;;;;;;;;;;;;;22.11;62.58;101557.97;7407976;19;1388;-69
2022/10/24 06:14:16;;;;;;;;;;;;;;;22.10;63.43;101561.63;7405119;19;1461;-69
2022/10/24 06:16:44;;;;;;;;;;;;;;;22.17;62.91;101568.19;7408297;19;1865;-67
2022/10/24 06:19:13;;;;;;;;;;;;;;;22.17;63.60;101556.59;7407676;19;1246;-66
2022/10/24 06:21:41;;;;;;;;;;;;;;;22.19;64.20;101578.84;7407409;19;1267;-67
2022/10/24 06:24:10;;;;;;;;;;;;;;;22.12;64.92;101559.66;7269386;19;15043;-70
2022/10/24 06:26:38;;;;;;;;;;;;;;;22.09;64.99;101565.34;7407171;19;1438;-66
2022/10/24 06:29:06;;;;;;;;;;;;;;;22.16;63.98;101579.97;7406743;19;1351;-64
2022/10/24 06:31:37;;;;;;;;;;;;;;;22.21;64.06;101575.00;7404975;19;1450;-67
2022/10/24 06:34:06;;;;;;;;;;;;;;;22.04;63.36;101567.56;7406928;19;1218;-65
2022/10/24 06:36:35;;;;;;;;;;;;;;;21.98;62.11;101568.97;7405654;19;1859;-66
2022/10/24 06:39:03;;;;;;;;;;;;;;;22.08;62.92;101566.31;7408449;19;1533;-69
2022/10/24 06:41:32;;;;;;;;;;;;;;;21.98;62.22;101558.19;7404538;19;1628;-67
2022/10/24 06:44:00;;;;;;;;;;;;;;;21.99;61.84;101564.47;7403942;19;1459;-75
2022/10/24 06:46:29;;;;;;;;;;;;;;;22.03;61.56;101572.13;7408700;19;1250;-75
2022/10/24 06:49:00;;;;;;;;;;;;;;;22.02;61.93;101565.03;7409430;19;1245;-73
2022/10/24 06:51:30;;;;;;;;;;;;;;;22.06;61.44;101576.38;7406928;19;1681;-77
2022/10/24 06:53:59;;;;;;;;;;;;;;;22.10;61.08;101555.41;7406869;19;1763;-76
2022/10/24 06:56:27;;;;;;;;;;;;;;;22.07;61.30;101564.63;7405110;19;1876;-74
2022/10/24 06:58:56;;;;;;;;;;;;;;;22.01;61.72;101557.94;7406059;19;1300;-72
2022/10/24 07:01:25;;;;;;;;;;;;;;;21.71;57.16;101550.72;7405205;19;1302;-73
2022/10/24 07:03:54;;;;;;;;;;;;;;;21.00;60.01;101567.50;7405231;19;1700;-74
2022/10/24 07:06:26;;;;;;;;;;;;;;;21.37;57.00;101563.53;7404561;19;1526;-73
2022/10/24 07:08:55;;;;;;;;;;;;;;;21.53;57.93;101557.72;7405173;19;1541;-77
2022/10/24 07:11:23;;;;;;;;;;;;;;;21.61;58.98;101565.97;7405229;19;1430;-76
2022/10/24 07:13:52;;;;;;;;;;;;;;;21.58;59.88;101550.94;7403751;19;1468;-78
2022/10/24 07:16:22;;;;;;;;;;;;;;;21.71;59.27;101545.34;7405003;19;1773;-75
2022/10/24 07:18:50;;;;;;;;;;;;;;;21.67;59.67;101554.69;7403263;19;1857;-67
2022/10/24 07:21:20;;;;;;;;;;;;;;;21.75;59.78;101562.94;7404316;19;1554;-73
2022/10/24 07:23:51;;;;;;;;;;;;;;;21.75;59.94;101544.09;7403640;19;1603;-75
2022/10/24 07:26:20;;;;;;;;;;;;;;;21.81;60.38;101572.31;7406299;19;1621;-74
2022/10/24 07:28:52;;;;;;;;;;;;;;;21.77;60.27;101579.81;7406821;19;1513;-75
2022/10/24 07:31:21;;;;;;;;;;;;;;;21.68;60.61;101568.97;7406427;19;997;-76
2022/10/24 07:33:50;;;;;;;;;;;;;;;21.69;60.64;101563.47;7406342;19;1785;-75
2022/10/24 07:36:19;;;;;;;;;;;;;;;21.70;60.92;101567.84;7405961;19;1549;-73
2022/10/24 07:38:52;;;;;;;;;;;;;;;21.69;60.99;101554.56;7403134;19;1834;-75
2022/10/24 07:41:23;;;;;;;;;;;;;;;21.72;61.25;101547.03;7405402;19;1604;-76
2022/10/24 07:43:51;;;;;;;;;;;;;;;21.74;61.22;101571.97;7404735;19;1659;-76
2022/10/24 07:46:20;;;;;;;;;;;;;;;21.73;61.38;101558.69;7406836;19;1549;-74
2022/10/24 07:48:50;;;;;;;;;;;;;;;21.69;61.68;101547.31;7406158;19;1730;-74
2022/10/24 07:51:22;;;;;;;;;;;;;;;21.72;61.85;101552.41;7403183;19;1558;-76
2022/10/24 07:53:54;;;;;;;;;;;;;;;21.71;61.65;101547.19;7405246;19;1376;-74
2022/10/24 07:56:22;;;;;;;;;;;;;;;21.66;62.10;101539.50;7405364;19;1121;-74
2022/10/24 07:58:52;;;;;;;;;;;;;;;21.68;62.23;101528.59;7400177;19;1858;-75
2022/10/24 08:01:21;;;;;;;;;;;;;;;21.68;62.15;101525.91;7404494;19;1679;-74
2022/10/24 08:03:49;;;;;;;;;;;;;;;21.67;62.24;101533.16;7402258;19;1822;-73
2022/10/24 08:06:19;;;;;;;;;;;;;;;21.82;62.37;101534.47;7404658;19;1213;-74
2022/10/24 08:08:47;;;;;;;;;;;;;;;21.78;61.99;101530.34;7403214;19;1475;-74
2022/10/24 08:11:20;;;;;;;;;;;;;;;21.75;62.14;101527.94;7403774;19;1385;-77
2022/10/24 08:13:49;;;;;;;;;;;;;;;21.83;62.04;101530.81;7403275;19;1315;-74
2022/10/24 08:16:19;;;;;;;;;;;;;;;21.90;62.49;101535.63;7405410;19;1323;-71
2022/10/24 08:18:48;;;;;;;;;;;;;;;21.92;62.49;101536.34;7402792;19;1868;-76
2022/10/24 08:21:17;;;;;;;;;;;;;;;21.83;62.62;101522.72;7402501;19;1415;-74
2022/10/24 08:23:46;;;;;;;;;;;;;;;21.80;62.66;101522.97;7404971;19;1600;-79
2022/10/24 08:26:15;;;;;;;;;;;;;;;21.77;62.63;101515.19;7405518;19;1594;-77
2022/10/24 08:28:48;;;;;;;;;;;;;;;21.78;62.63;101524.97;7406124;19;1580;-78
2022/10/24 08:31:18;;;;;;;;;;;;;;;21.83;62.49;101538.88;7405323;19;1735;-77
2022/10/24 08:33:47;;;;;;;;;;;;;;;21.88;62.33;101548.38;7403274;19;1625;-75
2022/10/24 08:36:19;;;;;;;;;;;;;;;21.87;62.39;101523.31;7404235;19;1540;-80
2022/10/24 08:38:47;;;;;;;;;;;;;;;21.88;62.23;101525.00;7403065;19;1864;-71
2022/10/24 08:41:19;;;;;;;;;;;;;;;21.94;62.20;101523.59;7403647;19;1414;-74
2022/10/24 08:43:51;;;;;;;;;;;;;;;21.90;62.29;101522.19;7403809;19;1359;-77
2022/10/24 08:46:25;;;;;;;;;;;;;;;21.92;62.46;101520.19;7404528;19;1428;-70
2022/10/24 08:48:55;;;;;;;;;;;;;;;21.91;62.36;101529.28;7404619;19;1640;-76
2022/10/24 08:51:29;;;;;;;;;;;;;;;21.93;62.50;101516.53;7404017;19;1475;-73
2022/10/24 08:54:00;;;;;;;;;;;;;;;21.92;62.72;101526.44;7403269;19;1673;-72
2022/10/24 08:56:30;;;;;;;;;;;;;;;21.98;62.40;101530.41;7404186;19;1709;-73
2022/10/24 08:59:02;;;;;;;;;;;;;;;22.01;62.49;101530.16;7403764;19;1841;-80
2022/10/24 09:01:33;;;;;;;;;;;;;;;21.97;62.23;101534.97;7403703;19;1752;-74
2022/10/24 09:04:04;;;;;;;;;;;;;;;21.96;62.82;101527.00;7402352;19;1747;-73
2022/10/24 09:06:33;;;;;;;;;;;;;;;21.91;62.77;101530.13;7404931;19;1384;-77
2022/10/24 09:09:03;;;;;;;;;;;;;;;21.94;62.76;101529.84;7403728;19;1391;-72
2022/10/24 09:11:33;;;;;;;;;;;;;;;21.85;63.17;101515.34;7409338;19;1384;-78
2022/10/24 09:14:08;;;;;;;;;;;;;;;21.85;63.10;101509.97;7411315;19;1344;-81
2022/10/24 09:16:37;;;;;;;;;;;;;;;21.93;63.06;101516.53;7410440;19;1306;-67
2022/10/24 09:19:06;;;;;;;;;;;;;;;22.00;62.59;101501.50;7407626;19;1864;-65
2022/10/24 09:21:34;;;;;;;;;;;;;;;22.02;62.92;101495.03;7411111;19;1639;-65
2022/10/24 09:24:02;;;;;;;;;;;;;;;21.92;63.03;101494.13;7409036;19;1621;-66
2022/10/24 09:26:32;;;;;;;;;;;;;;;21.88;63.35;101497.22;7411688;19;1213;-66
2022/10/24 09:29:01;;;;;;;;;;;;;;;21.81;63.21;101484.31;7410916;19;1639;-66
2022/10/24 09:31:31;;;;;;;;;;;;;;;21.90;62.59;101487.16;7409124;19;1623;-67
2022/10/24 09:34:03;;;;;;;;;;;;;;;22.01;62.82;101495.16;7410016;19;1657;-68
2022/10/24 09:36:31;;;;;;;;;;;;;;;22.07;63.40;101473.03;7410686;19;1513;-67
2022/10/24 09:39:15;;;;;;;;;;;;;;;22.05;63.41;101481.25;7408063;19;1848;-64
2022/10/24 09:41:48;;;;;;;;;;;;;;;22.14;63.00;101481.41;7409057;19;1566;-66
2022/10/24 09:44:29;;;;;;;;;;;;;;;22.06;62.83;101482.09;7409691;19;1536;-64
2022/10/24 09:47:00;;;;;;;;;;;;;;;22.04;62.97;101476.00;7409337;19;1451;-67
2022/10/24 09:49:33;;;;;;;;;;;;;;;22.13;62.48;101477.03;7406422;19;1514;-68
2022/10/24 09:52:03;;;;;;;;;;;;;;;22.20;62.23;101491.63;7409488;19;1327;-64
2022/10/24 09:54:33;;;;;;;;;;;;;;;22.10;62.41;101478.13;7407585;19;1557;-66
2022/10/24 09:57:06;;;;;;;;;;;;;;;22.02;62.26;101467.22;7407809;19;1653;-67
2022/10/24 09:59:37;;;;;;;;;;;;;;;22.00;62.51;101485.34;7407473;19;1870;-66
2022/10/24 10:02:33;;;;;;;;;;;;;;;21.97;62.30;101480.25;7406598;19;1598;-67
2022/10/24 10:05:16;;;;;;;;;;;;;;;21.99;62.51;101470.19;7406990;19;1467;-66
2022/10/24 10:07:49;;;;;;;;;;;;;;;21.99;62.30;101467.50;7408849;19;1554;-66
2022/10/24 10:10:25;;;;;;;;;;;;;;;21.99;61.66;101454.88;7409324;19;1467;-66
2022/10/24 10:12:58;;;;;;;;;;;;;;;22.02;62.06;101457.31;7409314;19;1545;-67
2022/10/24 10:15:29;;;;;;;;;;;;;;;22.00;61.89;101466.50;7407653;19;1692;-66
2022/10/24 10:17:59;;;;;;;;;;;;;;;21.97;62.19;101453.31;7407214;19;1877;-67
2022/10/24 10:20:29;;;;;;;;;;;;;;;22.01;61.56;101443.97;7407830;19;1731;-67
2022/10/24 10:23:16;;;;;;;;;;;;;;;22.00;61.93;101447.66;7404882;19;1671;-66
2022/10/24 10:25:45;;;;;;;;;;;;;;;22.03;61.88;101448.22;7407274;19;1718;-65
2022/10/24 10:28:21;;;;;;;;;;;;;;;22.04;62.31;101444.56;7407806;19;1684;-66
2022/10/24 10:30:50;;;;;;;;;;;;;;;22.04;61.93;101455.34;7407712;19;1630;-66
2022/10/24 10:33:21;;;;;;;;;;;;;;;22.02;62.13;101440.28;7406343;19;1439;-65
2022/10/24 10:35:53;;;;;;;;;;;;;;;22.09;62.15;101457.59;7407803;19;1577;-67
2022/10/24 10:38:37;;;;;;;;;;;;;;;22.05;62.18;101429.25;7406558;19;1864;-66
2022/10/24 10:41:11;;;;;;;;;;;;;;;22.04;61.93;101444.56;7408147;19;1372;-66
2022/10/24 10:43:44;;;;;;;;;;;;;;;22.05;62.12;101437.31;7407432;19;1260;-65
2022/10/24 10:46:18;;;;;;;;;;;;;;;22.05;62.16;101440.84;7406767;19;1260;-66
2022/10/24 10:48:54;;;;;;;;;;;;;;;22.07;62.25;101442.56;7407801;19;1328;-66
2022/10/24 10:51:25;;;;;;;;;;;;;;;22.04;62.19;101427.53;7407126;19;1311;-66
2022/10/24 10:54:00;;;;;;;;;;;;;;;22.05;62.01;101434.63;7407309;19;1652;-67
2022/10/24 10:56:32;;;;;;;;;;;;;;;22.01;61.99;101423.28;7407841;19;1561;-66
2022/10/24 10:59:06;;;;;;;;;;;;;;;22.00;62.20;101435.06;7406710;19;1863;-66
2022/10/24 11:01:39;;;;;;;;;;;;;;;21.99;62.15;101424.41;7407114;19;1326;-65
2022/10/24 11:04:13;;;;;;;;;;;;;;;21.99;62.44;101425.25;7405387;19;1687;-65
2022/10/24 11:06:47;;;;;;;;;;;;;;;22.00;62.58;101426.09;7406496;19;1815;-66
2022/10/24 11:09:36;;;;;;;;;;;;;;;22.00;62.43;101408.13;7406519;19;1342;-65
2022/10/24 11:12:11;;;;;;;;;;;;;;;22.07;62.42;101416.47;7400015;19;1448;-66
2022/10/24 11:14:41;;;;;;;;;;;;;;;22.13;61.92;101415.06;7408323;19;1436;-65
2022/10/24 11:17:13;;;;;;;;;;;;;;;22.12;62.19;101408.81;7408264;19;1673;-67
2022/10/24 11:19:45;;;;;;;;;;;;;;;22.09;62.29;101403.72;7405408;19;1865;-66
2022/10/24 11:22:17;;;;;;;;;;;;;;;22.12;62.40;101418.75;7408420;19;1530;-67
2022/10/24 11:24:48;;;;;;;;;;;;;;;22.19;62.39;101392.97;7407767;19;1688;-64
2022/10/24 11:27:23;;;;;;;;;;;;;;;22.22;62.23;101398.94;7405223;19;1336;-66
2022/10/24 11:29:56;;;;;;;;;;;;;;;22.14;62.00;101396.06;7408031;19;1234;-65
2022/10/24 11:32:28;;;;;;;;;;;;;;;22.09;62.11;101390.25;7409465;19;1629;-66
2022/10/24 11:34:59;;;;;;;;;;;;;;;22.11;62.34;101390.97;7407769;19;1494;-68
2022/10/24 11:37:30;;;;;;;;;;;;;;;22.07;62.58;101373.38;7409223;19;1611;-68
2022/10/24 11:40:01;;;;;;;;;;;;;;;22.09;62.41;101392.09;7408940;19;1852;-68
2022/10/24 11:42:36;;;;;;;;;;;;;;;22.11;62.22;101388.28;7408163;19;1758;-67
2022/10/24 11:45:07;;;;;;;;;;;;;;;22.06;62.44;101377.06;7408873;19;1845;-67
2022/10/24 11:47:53;;;;;;;;;;;;;;;22.09;62.14;101392.94;7409056;19;1652;-67
2022/10/24 11:50:26;;;;;;;;;;;;;;;22.07;62.38;101372.53;7407652;19;1605;-67
2022/10/24 11:52:56;;;;;;;;;;;;;;;22.05;62.48;101364.59;7407242;19;1716;-67
2022/10/24 11:55:26;;;;;;;;;;;;;;;22.04;62.48;101373.66;7406772;19;1456;-67
2022/10/24 11:57:59;;;;;;;;;;;;;;;22.05;62.38;101378.06;7407370;19;1502;-67
2022/10/24 12:00:31;;;;;;;;;;;;;;;22.05;62.23;101386.16;7405147;19;1885;-68
2022/10/24 12:03:19;;;;;;;;;;;;;;;22.07;62.17;101373.38;7406243;19;1678;-68
2022/10/24 12:06:07;;;;;;;;;;;;;;;22.08;62.07;101368.84;7404693;19;1371;-69
2022/10/24 12:08:52;;;;;;;;;;;;;;;22.11;62.42;101363.19;7406366;19;1304;-70
2022/10/24 12:11:30;;;;;;;;;;;;;;;22.09;62.38;101366.03;7407013;19;1530;-69
2022/10/24 12:14:17;;;;;;;;;;;;;;;22.13;61.98;101362.03;7407088;19;1612;-69
2022/10/24 12:16:51;;;;;;;;;;;;;;;22.13;62.10;101362.03;7406593;19;1392;-68
2022/10/24 12:19:21;;;;;;;;;;;;;;;22.12;62.33;101365.72;7407172;19;1845;-68
2022/10/24 12:21:53;;;;;;;;;;;;;;;22.13;62.51;101358.50;7404944;19;1534;-66
2022/10/24 12:24:24;;;;;;;;;;;;;;;22.12;61.87;101360.34;7402849;19;1617;-67
2022/10/24 12:26:57;;;;;;;;;;;;;;;22.10;62.01;101351.53;7404057;19;1407;-66
2022/10/24 12:29:30;;;;;;;;;;;;;;;22.06;62.18;101344.75;7405668;19;1487;-63
2022/10/24 12:31:59;;;;;;;;;;;;;;;22.03;62.49;101345.03;7403634;19;1473;-63
2022/10/24 12:34:43;;;;;;;;;;;;;;;22.01;62.63;101337.09;7402969;19;1534;-63
2022/10/24 12:37:29;;;;;;;;;;;;;;;21.93;62.61;101334.25;7405874;19;1494;-64
2022/10/24 12:39:57;;;;;;;;;;;;;;;22.00;62.38;101326.47;7403897;19;1889;-64
2022/10/24 12:42:40;;;;;;;;;;;;;;;21.92;62.52;101326.31;7403025;19;1684;-65
2022/10/24 12:45:29;;;;;;;;;;;;;;;21.90;62.70;101317.53;7400298;19;1512;-66
2022/10/24 12:48:13;;;;;;;;;;;;;;;21.93;62.54;101322.66;7403112;19;1536;-65
2022/10/24 12:50:56;;;;;;;;;;;;;;;21.93;62.48;101344.19;7402425;19;1528;-66
2022/10/24 12:53:33;;;;;;;;;;;;;;;21.92;62.16;101337.09;7403114;19;1387;-65
2022/10/24 12:56:09;;;;;;;;;;;;;;;21.91;62.38;101322.78;7402330;19;1529;-66
2022/10/24 12:58:38;;;;;;;;;;;;;;;21.90;62.52;101323.75;7401781;19;1850;-65
2022/10/24 13:01:12;;;;;;;;;;;;;;;21.84;62.62;101324.31;7404082;19;1494;-64
2022/10/24 13:03:57;;;;;;;;;;;;;;;21.98;62.23;101323.06;7401518;19;1747;-62
2022/10/24 13:06:28;;;;;;;;;;;;;;;22.02;61.76;101311.00;7401550;19;1604;-66
2022/10/24 13:09:05;;;;;;;;;;;;;;;22.00;61.75;101318.38;7401990;19;1680;-63